Etusivu
METAR-TAF:

METAR-TAF

Lentoasemat :

Burnet Municipal Airport (Kate Craddock Field)

Burnet, Texas, Yhdysvallat

Leveyspiiri: 30-44-26N, Pituuspiiri: 098-14-07W, korkeus merenpinnasta: 392 m

Tämänhetkinen sää

Tämä raportti tehtiin 18 minuuttia sitten, kello 02.31 UTC
Tuuli 3 kn etelästä
Lämpötila 20°C
Kosteus 88%
Ilmanpaine 1017 hPa
Näkyvyys: 16.1 km
Hajonneita pilviä 1500 ft:n korkeudessa

METAR: KBMQ 070231Z AUTO 18003KT 10SM BKN015 20/18 A3002 RMK AO2 T02000183

Aika: 21:49 (02:49 UTC)


TAF: puuttuu

Säähavainnot ja -ennusteet yli 4000 lentoasemalta (METAR- ja TAF-raportit).

Käytössä olevat sääasemat on merkitty karttaan keltaisilla ja punaisilla pisteillä.

Aseta hiiri pisteen päälle nähdäksesi sääaseman nimen.

Klikkaa sitten nähdäksesi säähavainnot ja -ennusteet.

Kartan vaihtaminen: klikkaa mustalla rastilla varustettuja vihreitä pisteitä, niin voit zoomata sisään; viivalla varustettua vihreää pistettä, niin voit zoomata ulos tai vihreitä nuolia, niin pääset viereisille kartoille.


METAR-TAF: